sensor_id;sensor_type;location;lat;lon;timestamp;P1;durP1;ratioP1;P2;durP2;ratioP2
78610;SDS011;67932;50.474;4.436;2023-09-12T00:00:03;24.38;;;13.85;;
78610;SDS011;67932;50.474;4.436;2023-09-12T00:02:30;25.25;;;13.88;;
78610;SDS011;67932;50.474;4.436;2023-09-12T00:04:57;27.30;;;15.32;;
78610;SDS011;67932;50.474;4.436;2023-09-12T00:07:23;25.08;;;14.98;;
78610;SDS011;67932;50.474;4.436;2023-09-12T00:09:49;24.50;;;14.90;;
78610;SDS011;67932;50.474;4.436;2023-09-12T00:12:16;26.13;;;15.63;;
78610;SDS011;67932;50.474;4.436;2023-09-12T00:14:42;27.15;;;14.35;;
78610;SDS011;67932;50.474;4.436;2023-09-12T00:17:09;25.67;;;14.90;;
78610;SDS011;67932;50.474;4.436;2023-09-12T00:19:35;27.15;;;16.10;;
78610;SDS011;67932;50.474;4.436;2023-09-12T00:22:01;29.67;;;15.82;;
78610;SDS011;67932;50.474;4.436;2023-09-12T00:24:28;28.52;;;15.43;;
78610;SDS011;67932;50.474;4.436;2023-09-12T00:26:55;30.88;;;15.15;;
78610;SDS011;67932;50.474;4.436;2023-09-12T00:29:21;29.27;;;15.05;;
78610;SDS011;67932;50.474;4.436;2023-09-12T00:31:47;27.23;;;14.05;;
78610;SDS011;67932;50.474;4.436;2023-09-12T00:34:17;28.88;;;14.88;;
78610;SDS011;67932;50.474;4.436;2023-09-12T00:36:43;25.83;;;13.80;;
78610;SDS011;67932;50.474;4.436;2023-09-12T00:39:09;29.38;;;14.98;;
78610;SDS011;67932;50.474;4.436;2023-09-12T00:41:36;27.25;;;14.77;;
78610;SDS011;67932;50.474;4.436;2023-09-12T00:44:02;25.25;;;14.77;;
78610;SDS011;67932;50.474;4.436;2023-09-12T00:46:29;26.30;;;14.00;;
78610;SDS011;67932;50.474;4.436;2023-09-12T00:48:56;22.58;;;13.43;;
78610;SDS011;67932;50.474;4.436;2023-09-12T00:51:24;24.67;;;14.18;;
78610;SDS011;67932;50.474;4.436;2023-09-12T00:53:52;24.65;;;13.38;;
78610;SDS011;67932;50.474;4.436;2023-09-12T00:56:19;28.45;;;13.77;;
78610;SDS011;67932;50.474;4.436;2023-09-12T00:58:46;26.67;;;14.75;;
78610;SDS011;67932;50.474;4.436;2023-09-12T01:01:12;24.98;;;14.70;;
78610;SDS011;67932;50.474;4.436;2023-09-12T01:03:38;26.38;;;14.60;;
78610;SDS011;67932;50.474;4.436;2023-09-12T01:06:05;26.48;;;13.88;;
78610;SDS011;67932;50.474;4.436;2023-09-12T01:08:34;22.52;;;13.43;;
78610;SDS011;67932;50.474;4.436;2023-09-12T01:11:02;25.33;;;14.85;;
78610;SDS011;67932;50.474;4.436;2023-09-12T01:13:29;23.23;;;13.48;;
78610;SDS011;67932;50.474;4.436;2023-09-12T01:15:56;20.70;;;13.32;;
78610;SDS011;67932;50.474;4.436;2023-09-12T01:18:22;26.60;;;13.32;;
78610;SDS011;67932;50.474;4.436;2023-09-12T01:20:57;24.20;;;13.40;;
78610;SDS011;67932;50.474;4.436;2023-09-12T01:29:16;28.40;;;15.00;;
78610;SDS011;67932;50.474;4.436;2023-09-12T01:32:11;31.42;;;15.57;;
78610;SDS011;67932;50.474;4.436;2023-09-12T01:34:39;29.42;;;15.50;;
78610;SDS011;67932;50.474;4.436;2023-09-12T01:37:05;30.67;;;16.08;;
78610;SDS011;67932;50.474;4.436;2023-09-12T01:39:32;28.92;;;15.48;;
78610;SDS011;67932;50.474;4.436;2023-09-12T01:41:58;27.75;;;15.75;;
78610;SDS011;67932;50.474;4.436;2023-09-12T01:44:26;31.20;;;16.38;;
78610;SDS011;67932;50.474;4.436;2023-09-12T01:46:54;29.58;;;15.48;;
78610;SDS011;67932;50.474;4.436;2023-09-12T01:49:22;32.58;;;16.65;;
78610;SDS011;67932;50.474;4.436;2023-09-12T01:51:51;28.90;;;15.05;;
78610;SDS011;67932;50.474;4.436;2023-09-12T01:54:18;28.23;;;14.85;;
78610;SDS011;67932;50.474;4.436;2023-09-12T01:56:46;29.13;;;15.27;;
78610;SDS011;67932;50.474;4.436;2023-09-12T01:59:12;30.95;;;15.43;;
78610;SDS011;67932;50.474;4.436;2023-09-12T02:01:39;28.55;;;15.95;;
78610;SDS011;67932;50.474;4.436;2023-09-12T02:04:06;29.67;;;16.73;;
78610;SDS011;67932;50.474;4.436;2023-09-12T02:06:34;30.25;;;15.30;;
78610;SDS011;67932;50.474;4.436;2023-09-12T02:09:00;24.30;;;13.93;;
78610;SDS011;67932;50.474;4.436;2023-09-12T02:11:28;30.10;;;15.63;;
78610;SDS011;67932;50.474;4.436;2023-09-12T02:13:54;32.63;;;15.73;;
78610;SDS011;67932;50.474;4.436;2023-09-12T02:16:21;30.88;;;16.55;;
78610;SDS011;67932;50.474;4.436;2023-09-12T02:18:48;29.42;;;15.73;;
78610;SDS011;67932;50.474;4.436;2023-09-12T02:21:14;32.42;;;17.42;;
78610;SDS011;67932;50.474;4.436;2023-09-12T02:23:43;31.20;;;16.15;;
78610;SDS011;67932;50.474;4.436;2023-09-12T02:26:09;32.88;;;17.27;;
78610;SDS011;67932;50.474;4.436;2023-09-12T02:28:36;36.70;;;18.73;;
78610;SDS011;67932;50.474;4.436;2023-09-12T02:31:09;29.90;;;16.95;;
78610;SDS011;67932;50.474;4.436;2023-09-12T02:33:37;32.65;;;16.95;;
78610;SDS011;67932;50.474;4.436;2023-09-12T02:36:04;33.22;;;17.42;;
78610;SDS011;67932;50.474;4.436;2023-09-12T02:38:31;29.55;;;16.42;;
78610;SDS011;67932;50.474;4.436;2023-09-12T02:40:57;31.58;;;17.58;;
78610;SDS011;67932;50.474;4.436;2023-09-12T02:43:23;29.77;;;16.60;;
78610;SDS011;67932;50.474;4.436;2023-09-12T02:45:50;33.15;;;17.60;;
78610;SDS011;67932;50.474;4.436;2023-09-12T02:48:18;35.35;;;17.20;;
78610;SDS011;67932;50.474;4.436;2023-09-12T02:50:44;32.63;;;16.77;;
78610;SDS011;67932;50.474;4.436;2023-09-12T02:53:11;34.30;;;17.88;;
78610;SDS011;67932;50.474;4.436;2023-09-12T02:55:41;38.30;;;19.52;;
78610;SDS011;67932;50.474;4.436;2023-09-12T02:58:08;33.90;;;18.20;;
78610;SDS011;67932;50.474;4.436;2023-09-12T03:00:38;41.28;;;19.70;;
78610;SDS011;67932;50.474;4.436;2023-09-12T03:03:05;36.80;;;19.20;;
78610;SDS011;67932;50.474;4.436;2023-09-12T03:05:34;44.15;;;21.75;;
78610;SDS011;67932;50.474;4.436;2023-09-12T03:08:00;43.00;;;20.95;;
78610;SDS011;67932;50.474;4.436;2023-09-12T03:10:28;37.33;;;19.05;;
78610;SDS011;67932;50.474;4.436;2023-09-12T03:12:54;32.90;;;18.38;;
78610;SDS011;67932;50.474;4.436;2023-09-12T03:15:21;37.92;;;19.58;;
78610;SDS011;67932;50.474;4.436;2023-09-12T03:17:47;40.95;;;19.63;;
78610;SDS011;67932;50.474;4.436;2023-09-12T03:20:14;40.38;;;20.33;;
78610;SDS011;67932;50.474;4.436;2023-09-12T03:22:40;44.58;;;21.23;;
78610;SDS011;67932;50.474;4.436;2023-09-12T03:25:07;48.50;;;21.90;;
78610;SDS011;67932;50.474;4.436;2023-09-12T03:27:33;46.55;;;21.77;;
78610;SDS011;67932;50.474;4.436;2023-09-12T03:30:00;48.92;;;21.70;;
78610;SDS011;67932;50.474;4.436;2023-09-12T03:32:26;41.53;;;20.73;;
78610;SDS011;67932;50.474;4.436;2023-09-12T03:34:53;45.15;;;22.52;;
78610;SDS011;67932;50.474;4.436;2023-09-12T03:37:19;46.53;;;22.85;;
78610;SDS011;67932;50.474;4.436;2023-09-12T03:39:46;45.60;;;21.63;;
78610;SDS011;67932;50.474;4.436;2023-09-12T03:42:13;42.45;;;21.80;;
78610;SDS011;67932;50.474;4.436;2023-09-12T03:44:39;44.80;;;22.05;;
78610;SDS011;67932;50.474;4.436;2023-09-12T03:47:05;42.40;;;21.30;;
78610;SDS011;67932;50.474;4.436;2023-09-12T03:49:31;43.53;;;20.52;;
78610;SDS011;67932;50.474;4.436;2023-09-12T03:51:58;46.78;;;21.85;;
78610;SDS011;67932;50.474;4.436;2023-09-12T03:54:24;53.40;;;22.77;;
78610;SDS011;67932;50.474;4.436;2023-09-12T03:56:51;48.83;;;22.70;;
78610;SDS011;67932;50.474;4.436;2023-09-12T03:59:18;46.55;;;22.42;;
78610;SDS011;67932;50.474;4.436;2023-09-12T04:01:44;52.50;;;24.98;;
78610;SDS011;67932;50.474;4.436;2023-09-12T04:04:10;59.03;;;24.05;;
78610;SDS011;67932;50.474;4.436;2023-09-12T04:06:36;52.58;;;24.25;;
78610;SDS011;67932;50.474;4.436;2023-09-12T04:09:03;57.08;;;25.02;;
78610;SDS011;67932;50.474;4.436;2023-09-12T04:11:29;56.67;;;25.25;;
78610;SDS011;67932;50.474;4.436;2023-09-12T04:13:55;59.60;;;24.90;;
78610;SDS011;67932;50.474;4.436;2023-09-12T04:16:21;52.83;;;24.20;;
78610;SDS011;67932;50.474;4.436;2023-09-12T04:18:48;54.45;;;23.65;;
78610;SDS011;67932;50.474;4.436;2023-09-12T04:21:14;62.60;;;25.30;;
78610;SDS011;67932;50.474;4.436;2023-09-12T04:23:40;65.95;;;25.50;;
78610;SDS011;67932;50.474;4.436;2023-09-12T04:26:06;65.50;;;23.55;;
78610;SDS011;67932;50.474;4.436;2023-09-12T04:28:33;53.15;;;23.98;;
78610;SDS011;67932;50.474;4.436;2023-09-12T04:31:03;51.40;;;24.83;;
78610;SDS011;67932;50.474;4.436;2023-09-12T04:33:30;52.05;;;24.90;;
78610;SDS011;67932;50.474;4.436;2023-09-12T04:35:57;50.47;;;22.92;;
78610;SDS011;67932;50.474;4.436;2023-09-12T04:38:26;52.67;;;23.38;;
78610;SDS011;67932;50.474;4.436;2023-09-12T04:40:53;53.13;;;24.20;;
78610;SDS011;67932;50.474;4.436;2023-09-12T04:43:27;49.92;;;22.60;;
78610;SDS011;67932;50.474;4.436;2023-09-12T04:45:53;52.70;;;23.15;;
78610;SDS011;67932;50.474;4.436;2023-09-12T04:48:20;51.78;;;23.85;;
78610;SDS011;67932;50.474;4.436;2023-09-12T04:50:47;51.72;;;23.48;;
78610;SDS011;67932;50.474;4.436;2023-09-12T04:53:13;58.90;;;23.95;;
78610;SDS011;67932;50.474;4.436;2023-09-12T04:55:39;56.33;;;24.33;;
78610;SDS011;67932;50.474;4.436;2023-09-12T04:58:06;53.03;;;23.23;;
78610;SDS011;67932;50.474;4.436;2023-09-12T05:00:32;53.20;;;23.30;;
78610;SDS011;67932;50.474;4.436;2023-09-12T05:02:59;54.15;;;22.52;;
78610;SDS011;67932;50.474;4.436;2023-09-12T05:05:27;53.70;;;24.38;;
78610;SDS011;67932;50.474;4.436;2023-09-12T05:07:55;50.67;;;22.85;;
78610;SDS011;67932;50.474;4.436;2023-09-12T05:10:21;54.33;;;23.05;;
78610;SDS011;67932;50.474;4.436;2023-09-12T05:12:47;52.58;;;23.65;;
78610;SDS011;67932;50.474;4.436;2023-09-12T05:15:13;51.03;;;22.88;;
78610;SDS011;67932;50.474;4.436;2023-09-12T05:17:40;54.80;;;24.33;;
78610;SDS011;67932;50.474;4.436;2023-09-12T05:20:06;57.58;;;23.10;;
78610;SDS011;67932;50.474;4.436;2023-09-12T05:22:33;53.88;;;24.75;;
78610;SDS011;67932;50.474;4.436;2023-09-12T05:24:59;52.55;;;22.98;;
78610;SDS011;67932;50.474;4.436;2023-09-12T05:27:27;54.65;;;23.95;;
78610;SDS011;67932;50.474;4.436;2023-09-12T05:29:54;54.20;;;23.85;;
78610;SDS011;67932;50.474;4.436;2023-09-12T05:32:21;61.20;;;25.38;;
78610;SDS011;67932;50.474;4.436;2023-09-12T05:34:47;57.83;;;22.98;;
78610;SDS011;67932;50.474;4.436;2023-09-12T05:37:15;61.08;;;24.50;;
78610;SDS011;67932;50.474;4.436;2023-09-12T05:39:41;63.65;;;25.65;;
78610;SDS011;67932;50.474;4.436;2023-09-12T05:42:07;66.72;;;25.52;;
78610;SDS011;67932;50.474;4.436;2023-09-12T05:44:34;58.55;;;25.40;;
78610;SDS011;67932;50.474;4.436;2023-09-12T05:47:01;66.40;;;27.42;;
78610;SDS011;67932;50.474;4.436;2023-09-12T05:49:31;59.15;;;24.35;;
78610;SDS011;67932;50.474;4.436;2023-09-12T05:51:59;57.20;;;25.88;;
78610;SDS011;67932;50.474;4.436;2023-09-12T05:54:26;62.08;;;25.10;;
78610;SDS011;67932;50.474;4.436;2023-09-12T05:56:56;59.15;;;25.83;;
78610;SDS011;67932;50.474;4.436;2023-09-12T05:59:23;59.42;;;24.80;;
78610;SDS011;67932;50.474;4.436;2023-09-12T06:01:49;57.78;;;24.95;;
78610;SDS011;67932;50.474;4.436;2023-09-12T06:04:17;57.63;;;24.17;;
78610;SDS011;67932;50.474;4.436;2023-09-12T06:06:45;52.42;;;23.55;;
78610;SDS011;67932;50.474;4.436;2023-09-12T06:09:13;54.58;;;24.33;;
78610;SDS011;67932;50.474;4.436;2023-09-12T06:11:40;58.10;;;24.98;;
78610;SDS011;67932;50.474;4.436;2023-09-12T06:14:08;55.45;;;24.02;;
78610;SDS011;67932;50.474;4.436;2023-09-12T06:16:34;56.75;;;25.27;;
78610;SDS011;67932;50.474;4.436;2023-09-12T06:19:01;55.83;;;24.85;;
78610;SDS011;67932;50.474;4.436;2023-09-12T06:21:47;51.45;;;22.65;;
78610;SDS011;67932;50.474;4.436;2023-09-12T06:24:16;59.75;;;24.65;;
78610;SDS011;67932;50.474;4.436;2023-09-12T06:26:44;54.35;;;24.13;;
78610;SDS011;67932;50.474;4.436;2023-09-12T06:29:10;58.65;;;26.30;;
78610;SDS011;67932;50.474;4.436;2023-09-12T06:31:38;54.47;;;23.65;;
78610;SDS011;67932;50.474;4.436;2023-09-12T06:34:06;49.60;;;22.70;;
78610;SDS011;67932;50.474;4.436;2023-09-12T06:36:33;51.47;;;22.60;;
78610;SDS011;67932;50.474;4.436;2023-09-12T06:39:01;48.97;;;21.65;;
78610;SDS011;67932;50.474;4.436;2023-09-12T06:41:30;48.40;;;22.90;;
78610;SDS011;67932;50.474;4.436;2023-09-12T06:43:56;45.78;;;22.30;;
78610;SDS011;67932;50.474;4.436;2023-09-12T06:46:24;55.60;;;23.88;;
78610;SDS011;67932;50.474;4.436;2023-09-12T06:48:51;53.88;;;23.85;;
78610;SDS011;67932;50.474;4.436;2023-09-12T06:51:17;58.40;;;26.05;;
78610;SDS011;67932;50.474;4.436;2023-09-12T06:53:48;55.20;;;24.15;;
78610;SDS011;67932;50.474;4.436;2023-09-12T06:56:14;49.45;;;23.05;;
78610;SDS011;67932;50.474;4.436;2023-09-12T06:58:40;48.40;;;23.65;;
78610;SDS011;67932;50.474;4.436;2023-09-12T07:01:07;48.05;;;23.20;;
78610;SDS011;67932;50.474;4.436;2023-09-12T07:03:33;51.35;;;23.13;;
78610;SDS011;67932;50.474;4.436;2023-09-12T07:06:00;50.55;;;22.67;;
78610;SDS011;67932;50.474;4.436;2023-09-12T07:08:29;44.78;;;21.25;;
78610;SDS011;67932;50.474;4.436;2023-09-12T07:10:56;43.83;;;21.70;;
78610;SDS011;67932;50.474;4.436;2023-09-12T07:13:24;50.63;;;23.02;;
78610;SDS011;67932;50.474;4.436;2023-09-12T07:15:51;52.03;;;22.27;;
78610;SDS011;67932;50.474;4.436;2023-09-12T07:18:17;44.63;;;21.33;;
78610;SDS011;67932;50.474;4.436;2023-09-12T07:20:45;48.85;;;22.65;;
78610;SDS011;67932;50.474;4.436;2023-09-12T07:23:11;51.15;;;21.40;;
78610;SDS011;67932;50.474;4.436;2023-09-12T07:25:38;55.65;;;23.08;;
78610;SDS011;67932;50.474;4.436;2023-09-12T07:28:08;50.05;;;23.40;;
78610;SDS011;67932;50.474;4.436;2023-09-12T07:30:34;52.28;;;22.95;;
78610;SDS011;67932;50.474;4.436;2023-09-12T07:33:02;49.47;;;22.30;;
78610;SDS011;67932;50.474;4.436;2023-09-12T07:35:29;55.83;;;23.48;;
78610;SDS011;67932;50.474;4.436;2023-09-12T07:37:56;52.55;;;22.90;;
78610;SDS011;67932;50.474;4.436;2023-09-12T07:40:24;49.85;;;21.95;;
78610;SDS011;67932;50.474;4.436;2023-09-12T07:42:50;57.15;;;23.88;;
78610;SDS011;67932;50.474;4.436;2023-09-12T07:45:16;56.50;;;24.65;;
78610;SDS011;67932;50.474;4.436;2023-09-12T07:47:43;52.00;;;23.17;;
78610;SDS011;67932;50.474;4.436;2023-09-12T07:50:09;53.03;;;22.30;;
78610;SDS011;67932;50.474;4.436;2023-09-12T07:52:35;49.60;;;21.17;;
78610;SDS011;67932;50.474;4.436;2023-09-12T07:55:02;49.92;;;20.48;;
78610;SDS011;67932;50.474;4.436;2023-09-12T07:57:31;45.45;;;21.33;;
78610;SDS011;67932;50.474;4.436;2023-09-12T07:59:58;42.03;;;20.83;;
78610;SDS011;67932;50.474;4.436;2023-09-12T08:02:24;49.80;;;20.92;;
78610;SDS011;67932;50.474;4.436;2023-09-12T08:04:50;42.40;;;17.92;;
78610;SDS011;67932;50.474;4.436;2023-09-12T08:07:18;43.33;;;19.95;;
78610;SDS011;67932;50.474;4.436;2023-09-12T08:09:52;39.13;;;17.48;;
78610;SDS011;67932;50.474;4.436;2023-09-12T08:12:20;43.78;;;18.52;;
78610;SDS011;67932;50.474;4.436;2023-09-12T08:14:47;40.53;;;18.05;;
78610;SDS011;67932;50.474;4.436;2023-09-12T08:17:14;39.95;;;19.10;;
78610;SDS011;67932;50.474;4.436;2023-09-12T08:19:40;42.28;;;18.70;;
78610;SDS011;67932;50.474;4.436;2023-09-12T08:22:07;41.83;;;18.90;;
78610;SDS011;67932;50.474;4.436;2023-09-12T08:24:34;37.55;;;18.58;;
78610;SDS011;67932;50.474;4.436;2023-09-12T08:27:03;33.15;;;17.73;;
78610;SDS011;67932;50.474;4.436;2023-09-12T08:29:29;45.65;;;19.38;;
78610;SDS011;67932;50.474;4.436;2023-09-12T08:31:57;37.90;;;17.88;;
78610;SDS011;67932;50.474;4.436;2023-09-12T08:34:25;36.22;;;17.88;;
78610;SDS011;67932;50.474;4.436;2023-09-12T08:36:51;43.17;;;18.83;;
78610;SDS011;67932;50.474;4.436;2023-09-12T08:39:22;35.58;;;16.75;;
78610;SDS011;67932;50.474;4.436;2023-09-12T08:41:50;34.97;;;16.98;;
78610;SDS011;67932;50.474;4.436;2023-09-12T08:44:17;32.58;;;17.00;;
78610;SDS011;67932;50.474;4.436;2023-09-12T08:46:45;36.42;;;17.55;;
78610;SDS011;67932;50.474;4.436;2023-09-12T08:49:12;32.13;;;16.77;;
78610;SDS011;67932;50.474;4.436;2023-09-12T08:51:40;31.88;;;16.50;;
78610;SDS011;67932;50.474;4.436;2023-09-12T08:54:09;34.47;;;17.63;;
78610;SDS011;67932;50.474;4.436;2023-09-12T08:56:36;36.00;;;17.25;;
78610;SDS011;67932;50.474;4.436;2023-09-12T08:59:08;30.63;;;14.98;;
78610;SDS011;67932;50.474;4.436;2023-09-12T09:01:35;33.20;;;17.58;;
78610;SDS011;67932;50.474;4.436;2023-09-12T09:04:03;35.45;;;17.08;;
78610;SDS011;67932;50.474;4.436;2023-09-12T09:06:30;30.17;;;15.65;;
78610;SDS011;67932;50.474;4.436;2023-09-12T09:08:58;26.45;;;14.70;;
78610;SDS011;67932;50.474;4.436;2023-09-12T09:11:27;27.50;;;14.27;;
78610;SDS011;67932;50.474;4.436;2023-09-12T09:13:54;31.92;;;13.13;;
78610;SDS011;67932;50.474;4.436;2023-09-12T09:16:23;25.20;;;12.93;;
78610;SDS011;67932;50.474;4.436;2023-09-12T09:18:54;23.80;;;12.98;;
78610;SDS011;67932;50.474;4.436;2023-09-12T09:21:58;29.23;;;13.88;;
78610;SDS011;67932;50.474;4.436;2023-09-12T09:24:31;23.92;;;12.70;;
78610;SDS011;67932;50.474;4.436;2023-09-12T09:26:57;27.35;;;13.45;;
78610;SDS011;67932;50.474;4.436;2023-09-12T09:29:30;23.38;;;12.93;;
78610;SDS011;67932;50.474;4.436;2023-09-12T09:32:10;20.08;;;11.25;;
78610;SDS011;67932;50.474;4.436;2023-09-12T09:34:46;22.00;;;11.38;;
78610;SDS011;67932;50.474;4.436;2023-09-12T09:37:13;18.73;;;11.40;;
78610;SDS011;67932;50.474;4.436;2023-09-12T09:39:40;20.25;;;10.45;;
78610;SDS011;67932;50.474;4.436;2023-09-12T09:42:09;18.00;;;9.95;;
78610;SDS011;67932;50.474;4.436;2023-09-12T09:44:39;23.48;;;10.75;;
78610;SDS011;67932;50.474;4.436;2023-09-12T09:47:05;21.52;;;10.70;;
78610;SDS011;67932;50.474;4.436;2023-09-12T09:49:43;25.30;;;12.40;;
78610;SDS011;67932;50.474;4.436;2023-09-12T09:52:11;19.23;;;9.73;;
78610;SDS011;67932;50.474;4.436;2023-09-12T09:54:43;23.27;;;10.73;;
78610;SDS011;67932;50.474;4.436;2023-09-12T09:57:11;21.85;;;12.07;;
78610;SDS011;67932;50.474;4.436;2023-09-12T09:59:38;22.48;;;11.95;;
78610;SDS011;67932;50.474;4.436;2023-09-12T10:02:08;20.10;;;11.20;;
78610;SDS011;67932;50.474;4.436;2023-09-12T10:05:34;21.58;;;11.20;;
78610;SDS011;67932;50.474;4.436;2023-09-12T10:11:35;19.25;;;9.20;;
78610;SDS011;67932;50.474;4.436;2023-09-12T10:17:21;18.08;;;9.43;;
78610;SDS011;67932;50.474;4.436;2023-09-12T10:27:46;15.02;;;8.25;;
78610;SDS011;67932;50.474;4.436;2023-09-12T10:30:20;13.73;;;6.40;;
78610;SDS011;67932;50.474;4.436;2023-09-12T10:33:31;17.70;;;9.27;;
78610;SDS011;67932;50.474;4.436;2023-09-12T10:36:49;13.90;;;8.40;;
78610;SDS011;67932;50.474;4.436;2023-09-12T10:42:40;16.92;;;8.48;;
78610;SDS011;67932;50.474;4.436;2023-09-12T11:25:18;15.65;;;7.60;;
78610;SDS011;67932;50.474;4.436;2023-09-12T11:39:30;12.77;;;7.15;;
78610;SDS011;67932;50.474;4.436;2023-09-12T11:45:21;15.38;;;7.40;;
78610;SDS011;67932;50.474;4.436;2023-09-12T11:47:49;11.70;;;6.95;;
78610;SDS011;67932;50.474;4.436;2023-09-12T11:50:31;12.98;;;6.85;;
78610;SDS011;67932;50.474;4.436;2023-09-12T11:59:04;11.43;;;7.53;;
78610;SDS011;67932;50.474;4.436;2023-09-12T12:01:43;11.93;;;7.50;;
78610;SDS011;67932;50.474;4.436;2023-09-12T12:04:15;14.52;;;8.68;;
78610;SDS011;67932;50.474;4.436;2023-09-12T12:09:59;10.52;;;7.18;;
78610;SDS011;67932;50.474;4.436;2023-09-12T12:12:46;12.70;;;7.20;;
78610;SDS011;67932;50.474;4.436;2023-09-12T12:15:22;13.20;;;7.70;;
78610;SDS011;67932;50.474;4.436;2023-09-12T12:18:44;14.65;;;8.48;;
78610;SDS011;67932;50.474;4.436;2023-09-12T12:21:27;12.20;;;8.13;;
78610;SDS011;67932;50.474;4.436;2023-09-12T12:24:09;11.60;;;7.53;;
78610;SDS011;67932;50.474;4.436;2023-09-12T12:26:59;17.35;;;9.13;;
78610;SDS011;67932;50.474;4.436;2023-09-12T12:32:25;17.38;;;9.75;;
78610;SDS011;67932;50.474;4.436;2023-09-12T12:34:57;15.15;;;9.13;;
78610;SDS011;67932;50.474;4.436;2023-09-12T12:37:28;17.23;;;9.88;;
78610;SDS011;67932;50.474;4.436;2023-09-12T12:40:05;15.43;;;9.98;;
78610;SDS011;67932;50.474;4.436;2023-09-12T12:43:17;13.98;;;8.40;;
78610;SDS011;67932;50.474;4.436;2023-09-12T12:45:54;16.58;;;10.77;;
78610;SDS011;67932;50.474;4.436;2023-09-12T12:51:14;15.85;;;10.88;;
78610;SDS011;67932;50.474;4.436;2023-09-12T12:54:13;14.43;;;10.32;;
78610;SDS011;67932;50.474;4.436;2023-09-12T12:56:40;13.88;;;9.65;;
78610;SDS011;67932;50.474;4.436;2023-09-12T12:59:08;16.55;;;11.52;;
78610;SDS011;67932;50.474;4.436;2023-09-12T13:01:36;16.38;;;11.48;;
78610;SDS011;67932;50.474;4.436;2023-09-12T13:04:06;17.13;;;11.25;;
78610;SDS011;67932;50.474;4.436;2023-09-12T13:06:38;18.98;;;10.77;;
78610;SDS011;67932;50.474;4.436;2023-09-12T13:09:06;19.08;;;10.90;;
78610;SDS011;67932;50.474;4.436;2023-09-12T13:12:13;20.55;;;12.30;;
78610;SDS011;67932;50.474;4.436;2023-09-12T13:14:51;16.27;;;9.55;;
78610;SDS011;67932;50.474;4.436;2023-09-12T13:17:19;13.95;;;9.77;;
78610;SDS011;67932;50.474;4.436;2023-09-12T13:19:45;21.40;;;11.68;;
78610;SDS011;67932;50.474;4.436;2023-09-12T13:22:30;15.13;;;10.38;;
78610;SDS011;67932;50.474;4.436;2023-09-12T13:24:57;14.35;;;10.23;;
78610;SDS011;67932;50.474;4.436;2023-09-12T13:27:31;14.73;;;10.65;;
78610;SDS011;67932;50.474;4.436;2023-09-12T13:30:00;13.90;;;10.10;;
78610;SDS011;67932;50.474;4.436;2023-09-12T13:32:28;12.13;;;9.48;;
78610;SDS011;67932;50.474;4.436;2023-09-12T13:34:55;13.57;;;8.90;;
78610;SDS011;67932;50.474;4.436;2023-09-12T13:37:33;13.95;;;8.90;;
78610;SDS011;67932;50.474;4.436;2023-09-12T13:39:59;10.88;;;8.60;;
78610;SDS011;67932;50.474;4.436;2023-09-12T13:42:26;11.05;;;8.43;;
78610;SDS011;67932;50.474;4.436;2023-09-12T13:44:56;13.88;;;8.57;;
78610;SDS011;67932;50.474;4.436;2023-09-12T13:47:22;12.27;;;7.90;;
78610;SDS011;67932;50.474;4.436;2023-09-12T13:49:51;9.45;;;7.25;;
78610;SDS011;67932;50.474;4.436;2023-09-12T13:52:21;12.05;;;7.97;;
78610;SDS011;67932;50.474;4.436;2023-09-12T13:54:51;11.05;;;8.07;;
78610;SDS011;67932;50.474;4.436;2023-09-12T13:57:18;14.77;;;9.02;;
78610;SDS011;67932;50.474;4.436;2023-09-12T13:59:44;14.98;;;9.00;;
78610;SDS011;67932;50.474;4.436;2023-09-12T14:02:10;12.50;;;8.95;;
78610;SDS011;67932;50.474;4.436;2023-09-12T14:04:46;11.45;;;8.95;;
78610;SDS011;67932;50.474;4.436;2023-09-12T14:07:15;11.95;;;9.13;;
78610;SDS011;67932;50.474;4.436;2023-09-12T14:09:42;12.40;;;8.68;;
78610;SDS011;67932;50.474;4.436;2023-09-12T14:12:08;10.52;;;6.88;;
78610;SDS011;67932;50.474;4.436;2023-09-12T14:17:16;10.00;;;6.55;;
78610;SDS011;67932;50.474;4.436;2023-09-12T14:19:46;9.23;;;6.07;;
78610;SDS011;67932;50.474;4.436;2023-09-12T14:22:13;10.40;;;6.53;;
78610;SDS011;67932;50.474;4.436;2023-09-12T14:24:40;14.55;;;6.57;;
78610;SDS011;67932;50.474;4.436;2023-09-12T14:27:06;9.88;;;5.47;;
78610;SDS011;67932;50.474;4.436;2023-09-12T14:29:33;9.18;;;6.18;;
78610;SDS011;67932;50.474;4.436;2023-09-12T14:31:59;11.27;;;6.22;;
78610;SDS011;67932;50.474;4.436;2023-09-12T14:34:26;10.10;;;5.90;;
78610;SDS011;67932;50.474;4.436;2023-09-12T14:36:54;11.05;;;6.03;;
78610;SDS011;67932;50.474;4.436;2023-09-12T14:39:22;9.32;;;5.25;;
78610;SDS011;67932;50.474;4.436;2023-09-12T14:41:49;9.05;;;6.07;;
78610;SDS011;67932;50.474;4.436;2023-09-12T14:44:20;11.25;;;7.53;;
78610;SDS011;67932;50.474;4.436;2023-09-12T14:46:47;11.70;;;7.38;;
78610;SDS011;67932;50.474;4.436;2023-09-12T14:49:17;13.32;;;8.48;;
78610;SDS011;67932;50.474;4.436;2023-09-12T14:51:43;12.77;;;8.85;;
78610;SDS011;67932;50.474;4.436;2023-09-12T14:54:09;12.13;;;9.05;;
78610;SDS011;67932;50.474;4.436;2023-09-12T14:56:36;12.15;;;8.27;;
78610;SDS011;67932;50.474;4.436;2023-09-12T14:59:03;13.75;;;9.68;;
78610;SDS011;67932;50.474;4.436;2023-09-12T15:01:31;15.30;;;10.18;;
78610;SDS011;67932;50.474;4.436;2023-09-12T15:03:59;16.88;;;10.35;;
78610;SDS011;67932;50.474;4.436;2023-09-12T15:06:26;17.00;;;10.18;;
78610;SDS011;67932;50.474;4.436;2023-09-12T15:08:53;15.88;;;10.52;;
78610;SDS011;67932;50.474;4.436;2023-09-12T15:11:19;16.30;;;10.27;;
78610;SDS011;67932;50.474;4.436;2023-09-12T15:13:45;15.93;;;9.52;;
78610;SDS011;67932;50.474;4.436;2023-09-12T15:16:11;13.95;;;8.40;;
78610;SDS011;67932;50.474;4.436;2023-09-12T15:18:38;13.45;;;7.75;;
78610;SDS011;67932;50.474;4.436;2023-09-12T15:21:05;11.40;;;7.38;;
78610;SDS011;67932;50.474;4.436;2023-09-12T15:23:32;10.13;;;6.68;;
78610;SDS011;67932;50.474;4.436;2023-09-12T15:25:58;9.90;;;6.95;;
78610;SDS011;67932;50.474;4.436;2023-09-12T15:28:26;12.25;;;6.65;;
78610;SDS011;67932;50.474;4.436;2023-09-12T15:30:53;10.70;;;6.47;;
78610;SDS011;67932;50.474;4.436;2023-09-12T15:33:19;9.93;;;5.63;;
78610;SDS011;67932;50.474;4.436;2023-09-12T15:35:47;11.95;;;6.03;;
78610;SDS011;67932;50.474;4.436;2023-09-12T15:38:14;10.75;;;5.80;;
78610;SDS011;67932;50.474;4.436;2023-09-12T15:40:40;11.93;;;5.75;;
78610;SDS011;67932;50.474;4.436;2023-09-12T15:43:06;10.18;;;5.85;;
78610;SDS011;67932;50.474;4.436;2023-09-12T15:45:32;11.27;;;5.88;;
78610;SDS011;67932;50.474;4.436;2023-09-12T15:48:00;23.30;;;7.18;;
78610;SDS011;67932;50.474;4.436;2023-09-12T15:50:26;9.02;;;5.20;;
78610;SDS011;67932;50.474;4.436;2023-09-12T15:52:53;11.80;;;5.75;;
78610;SDS011;67932;50.474;4.436;2023-09-12T15:55:19;16.05;;;6.93;;
78610;SDS011;67932;50.474;4.436;2023-09-12T15:57:45;14.35;;;7.07;;
78610;SDS011;67932;50.474;4.436;2023-09-12T16:00:12;14.10;;;7.15;;
78610;SDS011;67932;50.474;4.436;2023-09-12T16:02:39;18.33;;;7.97;;
78610;SDS011;67932;50.474;4.436;2023-09-12T16:05:07;12.65;;;8.00;;
78610;SDS011;67932;50.474;4.436;2023-09-12T16:07:34;13.50;;;7.18;;
78610;SDS011;67932;50.474;4.436;2023-09-12T16:10:00;17.25;;;7.00;;
78610;SDS011;67932;50.474;4.436;2023-09-12T16:12:27;16.50;;;7.68;;